sensor_id;sensor_type;location;lat;lon;timestamp;P1;durP1;ratioP1;P2;durP2;ratioP2
64459;SDS011;50828;53.756;21.140;2024-01-27T00:02:51;11.50;;;6.80;;
64459;SDS011;50828;53.756;21.140;2024-01-27T00:07:59;17.20;;;8.00;;
64459;SDS011;50828;53.756;21.140;2024-01-27T00:13:07;13.80;;;8.00;;
64459;SDS011;50828;53.756;21.140;2024-01-27T00:18:16;13.30;;;8.10;;
64459;SDS011;50828;53.756;21.140;2024-01-27T00:23:25;13.50;;;7.90;;
64459;SDS011;50828;53.756;21.140;2024-01-27T00:28:33;11.30;;;6.80;;
64459;SDS011;50828;53.756;21.140;2024-01-27T00:33:41;11.60;;;5.90;;
64459;SDS011;50828;53.756;21.140;2024-01-27T00:38:50;10.80;;;6.30;;
64459;SDS011;50828;53.756;21.140;2024-01-27T00:43:58;8.80;;;5.00;;
64459;SDS011;50828;53.756;21.140;2024-01-27T00:49:06;10.70;;;5.30;;
64459;SDS011;50828;53.756;21.140;2024-01-27T00:54:15;8.30;;;5.10;;
64459;SDS011;50828;53.756;21.140;2024-01-27T00:59:23;10.20;;;5.50;;
64459;SDS011;50828;53.756;21.140;2024-01-27T01:04:32;8.00;;;5.30;;
64459;SDS011;50828;53.756;21.140;2024-01-27T01:09:41;9.90;;;5.00;;
64459;SDS011;50828;53.756;21.140;2024-01-27T01:14:48;10.70;;;5.10;;
64459;SDS011;50828;53.756;21.140;2024-01-27T01:19:57;10.40;;;4.90;;
64459;SDS011;50828;53.756;21.140;2024-01-27T01:25:05;10.90;;;4.70;;
64459;SDS011;50828;53.756;21.140;2024-01-27T01:30:14;11.80;;;4.70;;
64459;SDS011;50828;53.756;21.140;2024-01-27T01:35:23;13.50;;;5.10;;
64459;SDS011;50828;53.756;21.140;2024-01-27T01:40:30;13.10;;;5.60;;
64459;SDS011;50828;53.756;21.140;2024-01-27T01:45:37;13.20;;;4.70;;
64459;SDS011;50828;53.756;21.140;2024-01-27T01:50:45;12.70;;;4.50;;
64459;SDS011;50828;53.756;21.140;2024-01-27T01:55:53;14.50;;;4.70;;
64459;SDS011;50828;53.756;21.140;2024-01-27T02:01:01;11.90;;;3.90;;
64459;SDS011;50828;53.756;21.140;2024-01-27T02:06:09;18.20;;;4.30;;
64459;SDS011;50828;53.756;21.140;2024-01-27T02:11:17;10.80;;;2.70;;
64459;SDS011;50828;53.756;21.140;2024-01-27T02:16:25;15.30;;;2.50;;
64459;SDS011;50828;53.756;21.140;2024-01-27T02:21:34;10.70;;;2.30;;
64459;SDS011;50828;53.756;21.140;2024-01-27T02:26:41;9.30;;;2.50;;
64459;SDS011;50828;53.756;21.140;2024-01-27T02:31:49;10.70;;;1.90;;
64459;SDS011;50828;53.756;21.140;2024-01-27T02:36:57;10.40;;;1.80;;
64459;SDS011;50828;53.756;21.140;2024-01-27T02:42:05;10.70;;;2.70;;
64459;SDS011;50828;53.756;21.140;2024-01-27T02:47:13;10.10;;;1.80;;
64459;SDS011;50828;53.756;21.140;2024-01-27T02:52:21;5.80;;;1.80;;
64459;SDS011;50828;53.756;21.140;2024-01-27T02:57:28;11.70;;;1.80;;
64459;SDS011;50828;53.756;21.140;2024-01-27T03:02:36;9.90;;;1.50;;
64459;SDS011;50828;53.756;21.140;2024-01-27T03:07:44;7.90;;;1.50;;
64459;SDS011;50828;53.756;21.140;2024-01-27T03:12:52;11.40;;;2.00;;
64459;SDS011;50828;53.756;21.140;2024-01-27T03:18:00;11.60;;;1.80;;
64459;SDS011;50828;53.756;21.140;2024-01-27T03:23:09;11.90;;;2.20;;
64459;SDS011;50828;53.756;21.140;2024-01-27T03:28:17;9.70;;;1.80;;
64459;SDS011;50828;53.756;21.140;2024-01-27T03:33:26;18.80;;;1.90;;
64459;SDS011;50828;53.756;21.140;2024-01-27T03:38:34;14.70;;;2.40;;
64459;SDS011;50828;53.756;21.140;2024-01-27T03:43:44;12.40;;;1.40;;
64459;SDS011;50828;53.756;21.140;2024-01-27T03:48:53;9.20;;;1.60;;
64459;SDS011;50828;53.756;21.140;2024-01-27T03:54:01;13.70;;;1.90;;
64459;SDS011;50828;53.756;21.140;2024-01-27T03:59:09;13.30;;;2.00;;
64459;SDS011;50828;53.756;21.140;2024-01-27T04:04:16;15.80;;;2.00;;
64459;SDS011;50828;53.756;21.140;2024-01-27T04:09:26;12.00;;;1.60;;
64459;SDS011;50828;53.756;21.140;2024-01-27T04:14:33;10.30;;;1.70;;
64459;SDS011;50828;53.756;21.140;2024-01-27T04:19:42;10.50;;;1.50;;
64459;SDS011;50828;53.756;21.140;2024-01-27T04:24:50;7.40;;;1.40;;
64459;SDS011;50828;53.756;21.140;2024-01-27T04:29:57;9.00;;;1.90;;
64459;SDS011;50828;53.756;21.140;2024-01-27T04:35:06;6.20;;;1.30;;
64459;SDS011;50828;53.756;21.140;2024-01-27T04:40:15;11.40;;;1.80;;
64459;SDS011;50828;53.756;21.140;2024-01-27T04:45:23;11.90;;;2.10;;
64459;SDS011;50828;53.756;21.140;2024-01-27T04:50:31;8.60;;;1.40;;
64459;SDS011;50828;53.756;21.140;2024-01-27T04:55:40;6.30;;;1.30;;
64459;SDS011;50828;53.756;21.140;2024-01-27T05:00:48;9.00;;;1.90;;
64459;SDS011;50828;53.756;21.140;2024-01-27T05:05:56;5.60;;;1.30;;
64459;SDS011;50828;53.756;21.140;2024-01-27T05:11:06;2.50;;;1.20;;
64459;SDS011;50828;53.756;21.140;2024-01-27T05:16:16;3.90;;;1.20;;
64459;SDS011;50828;53.756;21.140;2024-01-27T05:21:24;11.60;;;1.70;;
64459;SDS011;50828;53.756;21.140;2024-01-27T05:26:31;6.70;;;1.10;;
64459;SDS011;50828;53.756;21.140;2024-01-27T05:31:40;6.80;;;1.20;;
64459;SDS011;50828;53.756;21.140;2024-01-27T05:36:49;5.30;;;1.00;;
64459;SDS011;50828;53.756;21.140;2024-01-27T05:41:57;10.00;;;1.30;;
64459;SDS011;50828;53.756;21.140;2024-01-27T05:47:06;5.60;;;1.20;;
64459;SDS011;50828;53.756;21.140;2024-01-27T05:52:14;3.40;;;0.90;;
64459;SDS011;50828;53.756;21.140;2024-01-27T05:57:29;8.10;;;0.90;;
64459;SDS011;50828;53.756;21.140;2024-01-27T06:02:37;3.70;;;1.20;;
64459;SDS011;50828;53.756;21.140;2024-01-27T06:07:45;2.60;;;0.80;;
64459;SDS011;50828;53.756;21.140;2024-01-27T06:12:54;2.10;;;1.00;;
64459;SDS011;50828;53.756;21.140;2024-01-27T06:18:02;10.10;;;1.10;;
64459;SDS011;50828;53.756;21.140;2024-01-27T06:23:10;4.90;;;0.80;;
64459;SDS011;50828;53.756;21.140;2024-01-27T06:28:19;5.50;;;1.30;;
64459;SDS011;50828;53.756;21.140;2024-01-27T06:33:26;3.30;;;0.80;;
64459;SDS011;50828;53.756;21.140;2024-01-27T06:38:34;1.80;;;0.80;;
64459;SDS011;50828;53.756;21.140;2024-01-27T06:43:43;3.40;;;0.70;;
64459;SDS011;50828;53.756;21.140;2024-01-27T06:48:51;3.50;;;0.80;;
64459;SDS011;50828;53.756;21.140;2024-01-27T06:54:00;1.80;;;0.70;;
64459;SDS011;50828;53.756;21.140;2024-01-27T06:59:08;1.80;;;0.80;;
64459;SDS011;50828;53.756;21.140;2024-01-27T07:04:17;2.50;;;0.70;;
64459;SDS011;50828;53.756;21.140;2024-01-27T07:09:25;4.30;;;0.70;;
64459;SDS011;50828;53.756;21.140;2024-01-27T07:14:34;3.30;;;0.70;;
64459;SDS011;50828;53.756;21.140;2024-01-27T07:19:42;1.80;;;0.70;;
64459;SDS011;50828;53.756;21.140;2024-01-27T07:24:51;1.10;;;0.60;;
64459;SDS011;50828;53.756;21.140;2024-01-27T07:30:00;3.80;;;0.80;;
64459;SDS011;50828;53.756;21.140;2024-01-27T07:35:10;1.80;;;0.70;;
64459;SDS011;50828;53.756;21.140;2024-01-27T07:40:19;1.60;;;0.60;;
64459;SDS011;50828;53.756;21.140;2024-01-27T07:45:28;0.70;;;0.40;;
64459;SDS011;50828;53.756;21.140;2024-01-27T07:50:37;4.50;;;0.90;;
64459;SDS011;50828;53.756;21.140;2024-01-27T07:55:51;2.40;;;1.20;;
64459;SDS011;50828;53.756;21.140;2024-01-27T08:01:00;2.10;;;0.80;;
64459;SDS011;50828;53.756;21.140;2024-01-27T08:06:10;2.10;;;1.00;;
64459;SDS011;50828;53.756;21.140;2024-01-27T08:11:21;2.60;;;1.00;;
64459;SDS011;50828;53.756;21.140;2024-01-27T08:16:31;1.70;;;1.10;;
64459;SDS011;50828;53.756;21.140;2024-01-27T08:21:40;3.00;;;1.40;;
64459;SDS011;50828;53.756;21.140;2024-01-27T08:26:48;4.20;;;1.60;;
64459;SDS011;50828;53.756;21.140;2024-01-27T08:31:57;4.50;;;1.30;;
64459;SDS011;50828;53.756;21.140;2024-01-27T08:37:14;2.50;;;1.30;;
64459;SDS011;50828;53.756;21.140;2024-01-27T08:42:24;1.80;;;1.30;;
64459;SDS011;50828;53.756;21.140;2024-01-27T08:47:32;2.40;;;1.60;;
64459;SDS011;50828;53.756;21.140;2024-01-27T08:52:41;2.80;;;1.50;;
64459;SDS011;50828;53.756;21.140;2024-01-27T08:57:50;5.00;;;1.60;;
64459;SDS011;50828;53.756;21.140;2024-01-27T09:02:59;5.00;;;1.60;;
64459;SDS011;50828;53.756;21.140;2024-01-27T09:08:08;3.60;;;1.60;;
64459;SDS011;50828;53.756;21.140;2024-01-27T09:13:17;1.60;;;1.20;;
64459;SDS011;50828;53.756;21.140;2024-01-27T09:18:26;2.50;;;1.60;;
64459;SDS011;50828;53.756;21.140;2024-01-27T09:23:35;2.60;;;1.30;;
64459;SDS011;50828;53.756;21.140;2024-01-27T09:28:44;2.10;;;1.10;;
64459;SDS011;50828;53.756;21.140;2024-01-27T09:33:59;2.00;;;1.50;;
64459;SDS011;50828;53.756;21.140;2024-01-27T09:39:07;3.90;;;1.30;;
64459;SDS011;50828;53.756;21.140;2024-01-27T09:44:16;2.20;;;1.70;;
64459;SDS011;50828;53.756;21.140;2024-01-27T09:49:26;3.20;;;1.50;;
64459;SDS011;50828;53.756;21.140;2024-01-27T09:54:36;3.10;;;1.50;;
64459;SDS011;50828;53.756;21.140;2024-01-27T09:59:46;5.10;;;1.90;;
64459;SDS011;50828;53.756;21.140;2024-01-27T10:04:54;2.70;;;1.80;;
64459;SDS011;50828;53.756;21.140;2024-01-27T10:10:04;5.40;;;2.00;;
64459;SDS011;50828;53.756;21.140;2024-01-27T10:15:22;2.60;;;1.90;;
64459;SDS011;50828;53.756;21.140;2024-01-27T10:20:32;5.00;;;2.10;;
64459;SDS011;50828;53.756;21.140;2024-01-27T10:25:41;6.00;;;2.20;;
64459;SDS011;50828;53.756;21.140;2024-01-27T10:30:50;5.50;;;1.90;;
64459;SDS011;50828;53.756;21.140;2024-01-27T10:36:00;3.70;;;2.20;;
64459;SDS011;50828;53.756;21.140;2024-01-27T10:41:09;3.10;;;1.80;;
64459;SDS011;50828;53.756;21.140;2024-01-27T10:46:17;3.30;;;1.80;;
64459;SDS011;50828;53.756;21.140;2024-01-27T10:51:29;4.30;;;1.90;;
64459;SDS011;50828;53.756;21.140;2024-01-27T10:56:40;3.20;;;1.80;;
64459;SDS011;50828;53.756;21.140;2024-01-27T11:01:51;3.60;;;2.00;;
64459;SDS011;50828;53.756;21.140;2024-01-27T11:07:01;3.60;;;2.00;;
64459;SDS011;50828;53.756;21.140;2024-01-27T11:12:10;3.70;;;1.80;;
64459;SDS011;50828;53.756;21.140;2024-01-27T11:17:20;2.40;;;1.20;;
64459;SDS011;50828;53.756;21.140;2024-01-27T11:22:28;2.40;;;1.20;;
64459;SDS011;50828;53.756;21.140;2024-01-27T11:27:36;3.20;;;1.60;;
64459;SDS011;50828;53.756;21.140;2024-01-27T11:32:45;2.10;;;1.40;;
64459;SDS011;50828;53.756;21.140;2024-01-27T11:37:56;2.50;;;1.40;;
64459;SDS011;50828;53.756;21.140;2024-01-27T11:43:08;3.30;;;1.60;;
64459;SDS011;50828;53.756;21.140;2024-01-27T11:48:20;3.20;;;1.50;;
64459;SDS011;50828;53.756;21.140;2024-01-27T11:53:29;2.80;;;1.70;;
64459;SDS011;50828;53.756;21.140;2024-01-27T11:58:38;2.00;;;1.00;;
64459;SDS011;50828;53.756;21.140;2024-01-27T12:03:53;1.40;;;0.80;;
64459;SDS011;50828;53.756;21.140;2024-01-27T12:09:02;1.70;;;0.80;;
64459;SDS011;50828;53.756;21.140;2024-01-27T12:14:16;3.30;;;0.70;;
64459;SDS011;50828;53.756;21.140;2024-01-27T12:19:25;1.00;;;0.70;;
64459;SDS011;50828;53.756;21.140;2024-01-27T12:24:34;1.00;;;0.60;;
64459;SDS011;50828;53.756;21.140;2024-01-27T12:29:43;0.90;;;0.60;;
64459;SDS011;50828;53.756;21.140;2024-01-27T12:34:52;1.40;;;0.80;;
64459;SDS011;50828;53.756;21.140;2024-01-27T12:40:06;1.20;;;0.70;;
64459;SDS011;50828;53.756;21.140;2024-01-27T12:45:27;0.80;;;0.50;;
64459;SDS011;50828;53.756;21.140;2024-01-27T12:50:36;1.00;;;0.50;;
64459;SDS011;50828;53.756;21.140;2024-01-27T12:55:43;1.30;;;0.80;;
64459;SDS011;50828;53.756;21.140;2024-01-27T13:00:51;1.50;;;0.80;;
64459;SDS011;50828;53.756;21.140;2024-01-27T13:06:00;1.20;;;0.80;;
64459;SDS011;50828;53.756;21.140;2024-01-27T13:11:10;1.80;;;0.90;;
64459;SDS011;50828;53.756;21.140;2024-01-27T13:16:19;2.20;;;1.00;;
64459;SDS011;50828;53.756;21.140;2024-01-27T13:21:28;3.60;;;1.50;;
64459;SDS011;50828;53.756;21.140;2024-01-27T13:26:37;2.50;;;0.80;;
64459;SDS011;50828;53.756;21.140;2024-01-27T13:31:45;1.80;;;0.90;;
64459;SDS011;50828;53.756;21.140;2024-01-27T13:36:53;3.00;;;0.90;;
64459;SDS011;50828;53.756;21.140;2024-01-27T13:42:03;2.00;;;1.00;;
64459;SDS011;50828;53.756;21.140;2024-01-27T13:47:12;1.40;;;0.80;;
64459;SDS011;50828;53.756;21.140;2024-01-27T13:52:20;4.10;;;1.00;;
64459;SDS011;50828;53.756;21.140;2024-01-27T13:57:29;2.00;;;0.90;;
64459;SDS011;50828;53.756;21.140;2024-01-27T14:02:38;1.40;;;0.80;;
64459;SDS011;50828;53.756;21.140;2024-01-27T14:07:47;1.80;;;0.90;;
64459;SDS011;50828;53.756;21.140;2024-01-27T14:12:56;1.40;;;0.70;;
64459;SDS011;50828;53.756;21.140;2024-01-27T14:18:03;1.20;;;0.60;;
64459;SDS011;50828;53.756;21.140;2024-01-27T14:23:14;1.30;;;0.80;;
64459;SDS011;50828;53.756;21.140;2024-01-27T14:28:23;1.60;;;0.80;;
64459;SDS011;50828;53.756;21.140;2024-01-27T14:33:31;1.90;;;0.90;;
64459;SDS011;50828;53.756;21.140;2024-01-27T14:38:40;2.70;;;0.80;;
64459;SDS011;50828;53.756;21.140;2024-01-27T14:43:50;2.40;;;1.10;;
64459;SDS011;50828;53.756;21.140;2024-01-27T14:48:58;3.90;;;1.00;;
64459;SDS011;50828;53.756;21.140;2024-01-27T14:54:06;2.30;;;1.00;;
64459;SDS011;50828;53.756;21.140;2024-01-27T14:59:13;2.00;;;1.00;;
64459;SDS011;50828;53.756;21.140;2024-01-27T15:04:21;2.60;;;1.10;;
64459;SDS011;50828;53.756;21.140;2024-01-27T15:09:30;3.20;;;1.10;;
64459;SDS011;50828;53.756;21.140;2024-01-27T15:14:39;1.70;;;0.90;;
64459;SDS011;50828;53.756;21.140;2024-01-27T15:19:47;2.10;;;0.90;;
64459;SDS011;50828;53.756;21.140;2024-01-27T15:24:56;1.70;;;0.80;;
64459;SDS011;50828;53.756;21.140;2024-01-27T15:30:05;3.00;;;0.90;;
64459;SDS011;50828;53.756;21.140;2024-01-27T15:35:15;3.30;;;1.00;;
64459;SDS011;50828;53.756;21.140;2024-01-27T15:40:23;1.60;;;0.90;;
64459;SDS011;50828;53.756;21.140;2024-01-27T15:45:33;2.80;;;1.10;;
64459;SDS011;50828;53.756;21.140;2024-01-27T15:50:41;3.60;;;1.00;;
64459;SDS011;50828;53.756;21.140;2024-01-27T15:55:52;1.90;;;0.90;;
64459;SDS011;50828;53.756;21.140;2024-01-27T16:01:01;2.10;;;0.90;;
64459;SDS011;50828;53.756;21.140;2024-01-27T16:06:10;3.80;;;1.30;;
64459;SDS011;50828;53.756;21.140;2024-01-27T16:11:18;2.30;;;1.30;;
64459;SDS011;50828;53.756;21.140;2024-01-27T16:16:25;3.50;;;1.40;;
64459;SDS011;50828;53.756;21.140;2024-01-27T16:21:34;2.10;;;1.20;;
64459;SDS011;50828;53.756;21.140;2024-01-27T16:26:42;2.50;;;1.30;;
64459;SDS011;50828;53.756;21.140;2024-01-27T16:31:50;2.30;;;1.60;;
64459;SDS011;50828;53.756;21.140;2024-01-27T16:36:58;4.60;;;2.10;;
64459;SDS011;50828;53.756;21.140;2024-01-27T16:42:07;4.60;;;2.00;;
64459;SDS011;50828;53.756;21.140;2024-01-27T16:47:16;4.60;;;2.30;;
64459;SDS011;50828;53.756;21.140;2024-01-27T16:52:25;3.60;;;1.90;;
64459;SDS011;50828;53.756;21.140;2024-01-27T16:57:32;5.30;;;1.70;;
64459;SDS011;50828;53.756;21.140;2024-01-27T17:02:40;4.70;;;1.80;;
64459;SDS011;50828;53.756;21.140;2024-01-27T17:07:49;3.90;;;2.10;;
64459;SDS011;50828;53.756;21.140;2024-01-27T17:12:57;3.60;;;2.30;;
64459;SDS011;50828;53.756;21.140;2024-01-27T17:18:06;7.10;;;2.80;;
64459;SDS011;50828;53.756;21.140;2024-01-27T17:23:13;6.10;;;2.90;;
64459;SDS011;50828;53.756;21.140;2024-01-27T17:28:22;4.50;;;2.70;;
64459;SDS011;50828;53.756;21.140;2024-01-27T17:33:31;5.80;;;3.00;;
64459;SDS011;50828;53.756;21.140;2024-01-27T17:38:40;4.90;;;3.00;;
64459;SDS011;50828;53.756;21.140;2024-01-27T17:43:48;4.20;;;2.60;;
64459;SDS011;50828;53.756;21.140;2024-01-27T17:48:57;4.70;;;2.40;;
64459;SDS011;50828;53.756;21.140;2024-01-27T17:54:06;6.20;;;3.00;;
64459;SDS011;50828;53.756;21.140;2024-01-27T17:59:15;6.80;;;3.80;;
64459;SDS011;50828;53.756;21.140;2024-01-27T18:04:24;5.60;;;3.30;;
64459;SDS011;50828;53.756;21.140;2024-01-27T18:09:33;5.40;;;2.80;;
64459;SDS011;50828;53.756;21.140;2024-01-27T18:14:41;3.80;;;2.80;;
64459;SDS011;50828;53.756;21.140;2024-01-27T18:19:49;6.40;;;3.10;;
64459;SDS011;50828;53.756;21.140;2024-01-27T18:24:57;5.90;;;3.20;;
64459;SDS011;50828;53.756;21.140;2024-01-27T18:30:06;3.80;;;2.70;;
64459;SDS011;50828;53.756;21.140;2024-01-27T18:35:16;5.30;;;2.70;;
64459;SDS011;50828;53.756;21.140;2024-01-27T18:40:26;5.60;;;3.00;;
64459;SDS011;50828;53.756;21.140;2024-01-27T18:45:34;4.50;;;2.80;;
64459;SDS011;50828;53.756;21.140;2024-01-27T18:50:44;5.20;;;2.90;;
64459;SDS011;50828;53.756;21.140;2024-01-27T18:55:51;5.30;;;2.90;;
64459;SDS011;50828;53.756;21.140;2024-01-27T19:00:59;5.10;;;2.70;;
64459;SDS011;50828;53.756;21.140;2024-01-27T19:06:08;5.00;;;2.70;;
64459;SDS011;50828;53.756;21.140;2024-01-27T19:11:18;7.10;;;3.40;;
64459;SDS011;50828;53.756;21.140;2024-01-27T19:16:26;4.60;;;2.70;;
64459;SDS011;50828;53.756;21.140;2024-01-27T19:21:34;5.50;;;2.70;;
64459;SDS011;50828;53.756;21.140;2024-01-27T19:26:43;6.00;;;2.60;;
64459;SDS011;50828;53.756;21.140;2024-01-27T19:31:51;5.20;;;2.70;;
64459;SDS011;50828;53.756;21.140;2024-01-27T19:37:00;4.70;;;2.70;;
64459;SDS011;50828;53.756;21.140;2024-01-27T19:42:08;4.50;;;2.40;;
64459;SDS011;50828;53.756;21.140;2024-01-27T19:47:17;4.30;;;2.20;;
64459;SDS011;50828;53.756;21.140;2024-01-27T19:52:25;5.80;;;2.50;;
64459;SDS011;50828;53.756;21.140;2024-01-27T19:57:34;5.20;;;2.60;;
64459;SDS011;50828;53.756;21.140;2024-01-27T20:02:44;3.40;;;2.10;;
64459;SDS011;50828;53.756;21.140;2024-01-27T20:07:52;4.50;;;2.40;;
64459;SDS011;50828;53.756;21.140;2024-01-27T20:13:01;3.50;;;2.20;;
64459;SDS011;50828;53.756;21.140;2024-01-27T20:18:11;3.90;;;1.70;;
64459;SDS011;50828;53.756;21.140;2024-01-27T20:23:20;3.00;;;1.20;;
64459;SDS011;50828;53.756;21.140;2024-01-27T20:28:29;4.70;;;1.90;;
64459;SDS011;50828;53.756;21.140;2024-01-27T20:33:38;5.80;;;2.00;;
64459;SDS011;50828;53.756;21.140;2024-01-27T20:38:54;5.00;;;2.00;;
64459;SDS011;50828;53.756;21.140;2024-01-27T20:44:04;7.10;;;2.10;;
64459;SDS011;50828;53.756;21.140;2024-01-27T20:49:13;4.70;;;1.50;;
64459;SDS011;50828;53.756;21.140;2024-01-27T20:54:22;6.40;;;2.10;;
64459;SDS011;50828;53.756;21.140;2024-01-27T20:59:31;4.40;;;1.50;;
64459;SDS011;50828;53.756;21.140;2024-01-27T21:04:39;4.40;;;1.30;;
64459;SDS011;50828;53.756;21.140;2024-01-27T21:09:48;5.80;;;1.80;;
64459;SDS011;50828;53.756;21.140;2024-01-27T21:14:56;7.10;;;2.20;;
64459;SDS011;50828;53.756;21.140;2024-01-27T21:20:04;18.30;;;5.20;;
64459;SDS011;50828;53.756;21.140;2024-01-27T21:25:16;26.40;;;6.10;;
64459;SDS011;50828;53.756;21.140;2024-01-27T21:30:28;11.60;;;3.30;;
64459;SDS011;50828;53.756;21.140;2024-01-27T21:35:35;13.20;;;3.20;;
64459;SDS011;50828;53.756;21.140;2024-01-27T21:40:45;10.90;;;2.50;;
64459;SDS011;50828;53.756;21.140;2024-01-27T21:45:53;12.70;;;2.50;;
64459;SDS011;50828;53.756;21.140;2024-01-27T21:51:05;9.90;;;2.70;;
64459;SDS011;50828;53.756;21.140;2024-01-27T21:56:17;7.80;;;1.70;;
64459;SDS011;50828;53.756;21.140;2024-01-27T22:01:27;5.80;;;1.40;;
64459;SDS011;50828;53.756;21.140;2024-01-27T22:06:35;11.10;;;2.00;;
64459;SDS011;50828;53.756;21.140;2024-01-27T22:11:43;9.10;;;1.90;;
64459;SDS011;50828;53.756;21.140;2024-01-27T22:16:53;10.40;;;1.80;;
64459;SDS011;50828;53.756;21.140;2024-01-27T22:22:01;9.00;;;1.30;;
64459;SDS011;50828;53.756;21.140;2024-01-27T22:27:09;5.30;;;1.60;;
64459;SDS011;50828;53.756;21.140;2024-01-27T22:32:18;5.80;;;1.40;;
64459;SDS011;50828;53.756;21.140;2024-01-27T22:37:26;6.70;;;1.80;;
64459;SDS011;50828;53.756;21.140;2024-01-27T22:42:35;7.80;;;1.90;;
64459;SDS011;50828;53.756;21.140;2024-01-27T22:47:45;5.70;;;2.60;;
64459;SDS011;50828;53.756;21.140;2024-01-27T22:52:54;6.80;;;1.50;;
64459;SDS011;50828;53.756;21.140;2024-01-27T22:58:03;10.40;;;2.10;;
64459;SDS011;50828;53.756;21.140;2024-01-27T23:03:12;10.10;;;2.00;;
64459;SDS011;50828;53.756;21.140;2024-01-27T23:08:23;10.40;;;1.80;;
64459;SDS011;50828;53.756;21.140;2024-01-27T23:13:32;5.70;;;1.60;;
64459;SDS011;50828;53.756;21.140;2024-01-27T23:18:40;9.20;;;2.60;;
64459;SDS011;50828;53.756;21.140;2024-01-27T23:23:49;10.40;;;2.10;;
64459;SDS011;50828;53.756;21.140;2024-01-27T23:28:56;3.70;;;1.70;;
64459;SDS011;50828;53.756;21.140;2024-01-27T23:34:04;10.30;;;2.00;;
64459;SDS011;50828;53.756;21.140;2024-01-27T23:39:14;12.80;;;2.30;;
64459;SDS011;50828;53.756;21.140;2024-01-27T23:44:21;12.90;;;2.60;;
64459;SDS011;50828;53.756;21.140;2024-01-27T23:49:30;14.80;;;3.60;;
64459;SDS011;50828;53.756;21.140;2024-01-27T23:54:38;15.30;;;2.70;;
64459;SDS011;50828;53.756;21.140;2024-01-27T23:59:48;8.40;;;2.00;;
